首页
METAR-TAF:

METAR-TAF

机场 :

突尼斯-迦太基国际机场

突尼斯, 突尼斯

纬度: 36-50N, 经度: 010-14E, 海拔: 3米

当前天气观测

该预报发布于31分钟前的01:30 UTC
风速7节,风向西转西南
温度 20°C
湿度 78%
气压 1014 hPa
能見度: 8000
少量云层高于2300英尺

METAR: DTTA 220130Z 24007KT 8000 FEW023 20/16 Q1014 NOSIG

时间: 03:01 (02:01 UTC)

预报

该预报发布于2小时和41分钟前的23:20 UTC
预报有效从22日的 00点(UTC)到 22日的 24点(UTC)
风速10节,风向西
能见度10公里或以上
少量云层高于2300英尺
短暂存在
从 22日的 03点(UTC)到 22日的 10点(UTC)
风速15节,风向西北,有时为27节阵风
能見度: 4000
少量云层高于3000英尺, 积雨云.
雷暴, 阵雨
成为
从 22日的 10点(UTC)到 22日的 12点(UTC)
风速10节,风向
几率 40% :
短暂存在
从 22日的 16点(UTC)到 22日的 20点(UTC)
少量云层高于2300英尺, 积雨云.
成为
从 22日的 19点(UTC)到 22日的 21点(UTC)
风速10节,风向西
成为
从 22日的 22点(UTC)到 22日的 24点(UTC)
风速15节,风向西转西北,有时为35节阵风

TAF: DTTA 212320Z 2200/2224 27010KT 9999 FEW023 TEMPO 2203/2210 32015G27KT 4000 TS SHRA FEW030CB BECMG 2210/2212 36010KT PROB40 TEMPO 2216/2220 RA FEW023CB BECMG 2219/2221 27010KT BECMG 2222/2224 30015G35KT

超过4000个机场的气象观测和天气预报(METAR&TAF报告)。

可查询的气象台以黄色和红色小点在地图上表示。

将鼠标移到小点上方,可查看气象台名称。

然后点击查看天气观测和预报。

如需切换地图:点击带黑十字的绿色按钮放大地图;点击带横线的绿色按钮缩小地图;或者点击绿色箭头查看邻近地区的地图。


METAR-TAF: